Angler Guide Weather for Pond Inlet -
Pond Inlet, Nunavut Current Weather Conditions
Enter your "Place, State", US Zip Code or ICAO:  
Forecast Information Radar Information
Pond Inlet, Nunavut, Canada  Lat: 72.68N, Lon: 77.97W
ICAO Used: CYSR
Current Conditions
Updated:
Sun & Moon Information:
Temp: N/A
Humidity: N/A
Wind Speed: N/A
Barometer: N/A
Dewpoint: N/A
Heat Index: N/A
Wind Chill: N/A
Civil Twilight: 6:32 AM CDT
Moonrise: 3:17 AM CDT Moon Phase:
Waning Crescent Moon
Waning Crescent Moon
Moonset: 5:04 PM CDT
Sunrise: 7:46 AM CDT
Sunset: 4:03 PM CDT
Civil Twilight: 5:18 PM CDT
Forecast for Pond Inlet, NU:
(Forecast based on TAF for )
0205 PM CDT MON NOV 06 2006
  
AFTERNOONEVENINGOVERNIGHTMORNING
LIGHT SNOWMOSTLY CLOUDYMOSTLY CLOUDYMOSTLY CLOUDY
Light
Snow
Mostly
Cloudy
Mostly
Cloudy
Mostly
Cloudy
TAF based forecast:
Dated: 0205 PM CDT MON NOV 06 2006
Afternoon...Mostly cloudy with ice crystals with winds from the south east at 14 mph. Possible periods of mostly cloudy with light snow and mist.
Evening...Mostly cloudy with ice crystals with winds from the south east at 14 mph.
Overnight...Mostly cloudy with ice crystals with winds from the south east at 14 mph.
Morning...Mostly cloudy with ice crystals with winds from the south east at 14 mph.
Original Encoded TAF:
Dated: 0205 PM CDT MON NOV 06 2006
2006/11/06 19:05
CYSR 061905Z 061922 14012KT 6SM IC FEW008 BKN030 TEMPO 1922 2SM -SN BR SCT008 BKN030=




Powered by Angler Guide.com
Copyright 2007, all rights reserved.